Bedford, Texas
Current Conditions -  °F | °C
As of 10:19 AM on Friday 19 Dec 2014 (Local Time) from KDFW Reporting Station
Haze Haze  
Wind Chill: 40°   Ceiling: 500
Heat Index: 46°   Visibility: 3mi
Dew Point: 44°   Wind: 14mph
Humidity: 93%   Direction: 20°NNE
Pressure: 30.2"   Gusts: NA
Location:  32.84°N, 97.14°W
Report Text: KDFW 191619Z 02012KT 3SM BR OVC005 08/07 A3020 RMK AO2 SFC VIS 6 T00780067
Loading
Personal Weather Stations






























Interactive Weather Map New forecast layout! Learn more

10-Day Weather Forecast

Advertisements
Track Severe Weather on mobile